Terminal Aerodrome Forecast
Issued by NWS Mt. Holly, NJ

Home | Current Version | Previous Version | Text Only | Print | Product List | Glossary On
Versions: 1 2 3 4 5 6 7 8 9 10 11 12 13 14 15 16 17 18 19 20 21 22 23 24 25 26 27 28 29 30 31 32 33 34 35 36 37 38 39 40 41 42 43 44 45 46 47 48 49 50
247
FTUS41 KPHI 232342
TAFABE
TAF
KABE 232342Z 2400/2424 12004KT P6SM VCSH BKN030 BKN060
     FM240200 11006KT P6SM VCTS BKN040CB OVC060
      TEMPO 2402/2406 4SM TSRA OVC015CB
     FM240600 11006KT P6SM VCTS OVC025CB
      TEMPO 2406/2407 4SM TSRA OVC015CB
     FM241100 VRB04KT 4SM -SHRA OVC010
     FM241600 VRB02KT 4SM BR OVC015
     FM242000 12005KT P6SM BKN250 PROB30 2420/2424 4SM -TSRA
      OVC040CB=

USA.gov is the U.S. government's official web portal to all federal, state and local government web resources and services.